Phippsburg, Maine
Current Conditions -  °F | °C
As of 10:53 PM on Monday 22 Dec 2014 (Local Time) from KIWI Reporting Station
Overcast Overcast  
Wind Chill: 35°   Ceiling: 5500
Heat Index: 35°   Visibility: 10mi
Dew Point: 33°   Wind: 3mph
Humidity: 92%   Direction: NA
Pressure: 30.38"   Gusts: NA
Location:  43.82°N, 69.82°W
Report Text: KIWI 230353Z AUTO VRB03KT 10SM FEW003 SCT028 OVC055 02/01 A3038 RMK AO2 RAE02UPB0259E01 SLP289 P0000 T00170006
Loading
Personal Weather Stations






























Interactive Weather Map New forecast layout! Learn more

10-Day Weather Forecast

Advertisements
Track Severe Weather on mobile